Time;durP1;ratioP1;P1;durP2;ratioP2;P2;SDS_P1;SDS_P2;PMS_P1;PMS_P2;Temp;Humidity;BMP_temperature;BMP_pressure;BME280_temperature;BME280_humidity;BME280_pressure;Samples;Min_cycle;Max_cycle;Signal;HPM_P1;HPM_P2
2021/12/12 00:00:33;;;;;;;11.50;4.22;;;4.40;99.90;;;;;;5033421;28;20033;-79
2021/12/12 00:03:09;;;;;;;7.65;4.05;;;4.40;99.90;;;;;;5028680;28;20033;-80
2021/12/12 00:05:43;;;;;;;12.38;4.30;;;4.40;99.90;;;;;;5029058;28;20491;-78
2021/12/12 00:08:10;;;;;;;16.02;4.07;;;4.40;99.90;;;;;;5033947;28;20383;-80
2021/12/12 00:10:40;;;;;;;14.50;4.45;;;4.40;99.90;;;;;;5032403;28;20079;-78
2021/12/12 00:13:11;;;;;;;9.30;4.32;;;5.30;99.90;;;;;;5031516;28;20056;-79
2021/12/12 00:15:38;;;;;;;8.95;3.85;;;4.50;99.90;;;;;;5029595;28;20529;-80
2021/12/12 00:18:04;;;;;;;8.50;3.60;;;4.50;99.90;;;;;;5024580;28;20026;-81
2021/12/12 00:20:32;;;;;;;12.30;3.53;;;4.50;99.90;;;;;;5028634;28;20083;-81
2021/12/12 00:22:59;;;;;;;13.60;4.35;;;4.50;99.90;;;;;;5029074;28;20112;-79
2021/12/12 00:25:39;;;;;;;12.13;4.40;;;4.50;99.90;;;;;;5022976;28;20029;-78
2021/12/12 00:28:06;;;;;;;8.20;3.50;;;4.50;99.90;;;;;;5032353;28;20029;-82
2021/12/12 00:30:33;;;;;;;10.18;3.90;;;5.90;99.90;;;;;;5031843;28;20025;-82
2021/12/12 00:32:59;;;;;;;12.07;4.30;;;4.50;99.90;;;;;;5028030;28;20052;-80
2021/12/12 00:35:25;;;;;;;11.05;4.78;;;4.50;99.90;;;;;;5032589;28;20042;-79
2021/12/12 00:37:57;;;;;;;19.40;4.35;;;4.40;99.90;;;;;;5026643;28;20086;-82
2021/12/12 00:40:35;;;;;;;11.07;4.40;;;4.40;99.90;;;;;;5032899;28;20041;-83
2021/12/12 00:43:11;;;;;;;13.57;4.15;;;4.50;99.90;;;;;;5031469;28;20033;-82
2021/12/12 00:45:37;;;;;;;10.00;3.67;;;4.30;99.90;;;;;;5031367;28;20030;-83
2021/12/12 00:48:04;;;;;;;16.63;4.22;;;4.30;99.90;;;;;;5026169;28;20033;-79
2021/12/12 00:50:37;;;;;;;10.93;4.13;;;4.40;99.90;;;;;;5027828;28;20037;-83
2021/12/12 00:53:06;;;;;;;15.20;4.32;;;4.40;99.90;;;;;;5045553;28;20037;-80
2021/12/12 00:55:37;;;;;;;12.02;4.38;;;4.50;99.90;;;;;;5036407;28;20044;-80
2021/12/12 00:58:10;;;;;;;;;;;4.40;99.90;;;;;;5025807;28;20038;-78
2021/12/12 01:00:42;;;;;;;9.45;3.45;;;4.50;99.90;;;;;;5027422;28;19921;-80
2021/12/12 01:03:10;;;;;;;11.90;5.00;;;4.50;99.90;;;;;;5027375;28;20137;-78
2021/12/12 01:05:38;;;;;;;10.02;3.75;;;4.50;99.90;;;;;;5026352;28;20021;-79
2021/12/12 01:08:06;;;;;;;13.43;3.88;;;4.50;99.90;;;;;;5028198;28;20124;-83
2021/12/12 01:10:45;;;;;;;9.00;3.38;;;4.70;99.90;;;;;;5029671;28;20487;-82
2021/12/12 01:13:11;;;;;;;8.52;3.35;;;;;;;;;;5024193;28;20037;-82
2021/12/12 01:15:43;;;;;;;12.18;4.22;;;4.50;99.90;;;;;;5030885;28;20021;-82
2021/12/12 01:18:17;;;;;;;11.77;3.63;;;4.40;99.90;;;;;;5032533;28;20045;-81
2021/12/12 01:20:50;;;;;;;8.98;4.00;;;4.40;99.90;;;;;;5022845;28;20033;-81
2021/12/12 01:23:29;;;;;;;17.48;4.22;;;4.30;99.90;;;;;;5050172;28;20036;-79
2021/12/12 01:25:57;;;;;;;20.88;8.40;;;4.30;99.90;;;;;;5028661;28;20028;-78
2021/12/12 01:28:28;;;;;;;13.30;4.10;;;4.30;99.90;;;;;;5032929;28;20037;-81
2021/12/12 01:30:57;;;;;;;12.05;3.35;;;4.20;99.90;;;;;;5025983;28;20053;-78
2021/12/12 01:33:34;;;;;;;12.18;3.45;;;4.20;99.90;;;;;;5043588;28;20041;-80
2021/12/12 01:36:07;;;;;;;9.60;3.63;;;6.50;99.90;;;;;;5027263;28;20033;-79
2021/12/12 01:38:55;;;;;;;8.82;3.17;;;4.20;99.90;;;;;;5030500;28;20029;-80
2021/12/12 01:41:32;;;;;;;11.65;3.63;;;4.30;99.90;;;;;;5033066;28;20040;-78
2021/12/12 01:44:09;;;;;;;10.00;3.65;;;4.20;99.90;;;;;;5028649;28;20472;-83
2021/12/12 01:46:44;;;;;;;11.65;4.15;;;4.30;99.90;;;;;;5026267;28;20038;-78
2021/12/12 01:49:15;;;;;;;15.75;4.15;;;4.60;99.90;;;;;;5030904;28;20387;-79
2021/12/12 01:51:43;;;;;;;12.23;3.72;;;4.30;99.90;;;;;;5031264;28;20068;-82
2021/12/12 01:54:12;;;;;;;11.27;3.40;;;4.30;99.90;;;;;;5033541;28;20032;-80
2021/12/12 01:56:49;;;;;;;7.88;3.20;;;4.80;99.90;;;;;;5023321;28;20040;-79
2021/12/12 01:59:16;;;;;;;8.20;3.20;;;4.50;99.90;;;;;;5026856;28;20032;-80
2021/12/12 02:01:50;;;;;;;9.05;3.38;;;4.30;99.90;;;;;;5026765;28;20026;-81
2021/12/12 02:04:21;;;;;;;7.43;3.08;;;4.30;99.90;;;;;;5023436;28;20041;-81
2021/12/12 02:06:50;;;;;;;8.57;3.30;;;4.20;99.90;;;;;;5046760;28;20032;-84
2021/12/12 02:09:17;;;;;;;13.43;3.72;;;4.20;99.90;;;;;;5025461;28;20017;-80
2021/12/12 02:11:46;;;;;;;9.25;3.50;;;4.20;99.90;;;;;;5030529;28;20031;-86
2021/12/12 02:14:15;;;;;;;9.75;3.47;;;4.20;99.90;;;;;;5026476;28;20040;-81
2021/12/12 02:16:48;;;;;;;7.53;3.45;;;6.70;99.90;;;;;;5044334;28;20065;-81
2021/12/12 02:19:16;;;;;;;11.45;3.80;;;4.80;99.90;;;;;;5026462;28;20026;-79
2021/12/12 02:22:04;;;;;;;9.98;3.30;;;4.20;99.90;;;;;;5025262;28;20026;-80
2021/12/12 02:38:00;;;;;;;9.10;3.55;;;4.10;99.90;;;;;;5028900;28;20037;-82
2021/12/12 02:40:43;;;;;;;10.05;4.05;;;4.00;99.90;;;;;;5030649;28;20029;-79
2021/12/12 02:43:12;;;;;;;11.40;3.10;;;4.00;99.90;;;;;;5030215;28;20038;-79
2021/12/12 02:45:38;;;;;;;9.52;3.17;;;4.00;99.90;;;;;;5024929;28;20030;-80
2021/12/12 02:48:07;;;;;;;9.15;3.55;;;4.00;99.90;;;;;;5031630;28;20083;-82
2021/12/12 02:50:37;;;;;;;8.82;3.25;;;4.00;99.90;;;;;;5028824;28;20032;-85
2021/12/12 02:53:13;;;;;;;10.98;3.10;;;6.20;99.90;;;;;;5055293;28;20033;-81
2021/12/12 02:55:49;;;;;;;9.15;3.65;;;4.00;99.90;;;;;;5029640;28;20033;-81
2021/12/12 02:58:16;;;;;;;11.27;3.70;;;4.00;99.90;;;;;;5034889;28;20038;-83
2021/12/12 03:01:08;;;;;;;11.38;3.20;;;4.00;99.90;;;;;;5027333;28;20029;-81
2021/12/12 03:03:37;;;;;;;10.65;3.08;;;6.10;99.90;;;;;;5012420;28;20439;-77
2021/12/12 03:06:05;;;;;;;10.13;3.67;;;4.00;99.90;;;;;;5033010;28;20120;-81
2021/12/12 03:08:32;;;;;;;8.13;3.80;;;4.00;99.90;;;;;;5025655;28;20044;-78
2021/12/12 03:10:58;;;;;;;9.60;3.22;;;4.00;99.90;;;;;;5031244;28;20043;-80
2021/12/12 03:13:25;;;;;;;8.98;3.40;;;4.50;99.90;;;;;;5033403;28;21672;-79
2021/12/12 03:15:53;;;;;;;8.40;2.97;;;5.50;99.90;;;;;;5036102;28;20022;-78
2021/12/12 03:18:28;;;;;;;10.35;3.33;;;4.00;99.90;;;;;;5032225;28;20029;-79
2021/12/12 03:20:59;;;;;;;11.02;3.70;;;4.10;99.90;;;;;;5031518;28;20036;-79
2021/12/12 03:23:30;;;;;;;11.20;3.22;;;3.90;99.90;;;;;;5026325;28;20415;-78
2021/12/12 03:26:01;;;;;;;7.85;2.97;;;3.90;99.90;;;;;;5035275;28;20041;-81
2021/12/12 03:28:31;;;;;;;9.65;2.83;;;3.90;99.90;;;;;;5034377;28;20047;-78
2021/12/12 03:31:00;;;;;;;7.97;3.22;;;3.90;99.90;;;;;;5028418;28;20049;-79
2021/12/12 03:33:29;;;;;;;10.50;3.88;;;3.90;99.90;;;;;;5027939;28;20081;-82
2021/12/12 03:35:56;;;;;;;9.10;3.35;;;3.90;99.90;;;;;;5031299;28;20029;-83
2021/12/12 03:38:27;;;;;;;12.02;3.85;;;4.10;99.90;;;;;;5029082;28;20044;-80
2021/12/12 03:40:58;;;;;;;13.00;4.47;;;3.90;99.90;;;;;;5030937;28;20048;-81
2021/12/12 03:43:24;;;;;;;10.38;3.85;;;3.90;99.90;;;;;;5032494;28;20030;-79
2021/12/12 03:45:50;;;;;;;12.57;4.13;;;3.90;99.90;;;;;;5028122;28;20027;-80
2021/12/12 03:48:43;;;;;;;10.55;3.50;;;3.90;99.90;;;;;;5028563;28;20032;-78
2021/12/12 03:51:13;;;;;;;11.23;3.40;;;3.90;99.90;;;;;;5050464;28;20061;-81
2021/12/12 03:53:39;;;;;;;7.05;3.03;;;4.00;99.90;;;;;;5031873;28;20430;-82
2021/12/12 03:56:08;;;;;;;11.35;3.60;;;3.90;99.90;;;;;;5030024;28;20030;-80
2021/12/12 03:58:33;;;;;;;8.77;2.97;;;3.90;99.90;;;;;;5027686;28;20092;-81
2021/12/12 04:01:10;;;;;;;7.57;3.22;;;3.90;99.90;;;;;;5028426;28;20037;-78
2021/12/12 04:03:37;;;;;;;9.20;3.67;;;3.90;99.90;;;;;;5025824;28;20026;-78
2021/12/12 04:06:06;;;;;;;12.38;3.03;;;3.90;99.90;;;;;;5022870;28;20487;-81
2021/12/12 04:08:39;;;;;;;8.40;2.78;;;4.00;99.90;;;;;;5031392;28;20080;-84
2021/12/12 04:11:11;;;;;;;8.55;3.33;;;4.00;99.90;;;;;;5021466;28;20033;-82
2021/12/12 04:13:42;;;;;;;9.32;3.15;;;4.00;99.90;;;;;;5034363;28;20097;-81
2021/12/12 04:16:11;;;;;;;11.75;3.10;;;4.00;99.90;;;;;;5027113;28;20037;-79
2021/12/12 04:18:37;;;;;;;8.68;3.70;;;5.20;99.90;;;;;;5024181;28;20794;-79
2021/12/12 04:21:03;;;;;;;9.25;3.00;;;4.00;99.90;;;;;;5024380;28;20125;-78
2021/12/12 04:23:29;;;;;;;11.30;3.28;;;4.00;99.90;;;;;;5029776;28;20030;-80
2021/12/12 04:26:08;;;;;;;14.02;3.00;;;4.10;99.90;;;;;;5030204;28;20020;-77
2021/12/12 04:28:34;;;;;;;12.20;3.08;;;4.10;99.90;;;;;;5029614;28;20076;-78
2021/12/12 04:31:03;;;;;;;10.10;3.05;;;4.00;99.90;;;;;;5027283;28;20033;-78
2021/12/12 04:33:29;;;;;;;9.23;3.35;;;4.10;99.90;;;;;;5030665;28;20060;-78
2021/12/12 04:35:55;;;;;;;12.90;4.00;;;4.00;99.90;;;;;;5031402;28;20029;-80
2021/12/12 04:38:20;;;;;;;6.97;2.72;;;4.00;99.90;;;;;;5027132;28;20030;-78
2021/12/12 04:40:46;;;;;;;12.60;3.40;;;4.00;99.90;;;;;;5026484;28;20076;-81
2021/12/12 04:43:12;;;;;;;13.25;3.70;;;4.00;99.90;;;;;;5025378;28;20387;-78
2021/12/12 04:45:51;;;;;;;9.30;3.08;;;4.00;99.90;;;;;;5024488;28;20026;-82
2021/12/12 04:51:26;;;;;;;7.75;2.88;;;4.00;99.90;;;;;;5025304;28;20837;-80
2021/12/12 04:53:59;;;;;;;12.60;3.22;;;4.10;99.90;;;;;;5024572;28;20037;-80
2021/12/12 04:56:50;;;;;;;8.82;2.85;;;4.10;99.90;;;;;;5025737;28;20021;-81
2021/12/12 04:59:28;;;;;;;7.17;3.00;;;4.10;99.90;;;;;;5023209;28;20057;-79
2021/12/12 05:02:16;;;;;;;11.10;3.10;;;4.10;99.90;;;;;;5028653;28;20025;-77
2021/12/12 05:05:05;;;;;;;10.45;2.80;;;4.10;99.90;;;;;;5024148;28;20045;-81
2021/12/12 05:07:56;;;;;;;11.57;3.22;;;4.10;99.90;;;;;;5024052;28;20387;-79
2021/12/12 05:10:24;;;;;;;;;;;4.10;99.90;;;;;;5024628;28;20061;-81
2021/12/12 05:13:14;;;;;;;10.55;2.75;;;4.20;99.90;;;;;;5025875;28;19909;-77
2021/12/12 05:15:44;;;;;;;8.10;2.60;;;4.20;99.90;;;;;;5026004;28;20056;-82
2021/12/12 05:18:28;;;;;;;12.75;3.17;;;4.20;99.90;;;;;;5023926;28;20033;-79
2021/12/12 05:21:11;;;;;;;7.22;2.90;;;4.20;99.90;;;;;;5028144;28;20132;-77
2021/12/12 05:23:43;;;;;;;6.05;2.55;;;4.20;99.90;;;;;;5026109;28;20053;-78
2021/12/12 05:26:45;;;;;;;9.45;2.72;;;4.20;99.90;;;;;;5029769;28;20018;-81
2021/12/12 05:29:20;;;;;;;7.28;2.72;;;4.20;99.90;;;;;;5027557;28;20033;-77
2021/12/12 05:31:50;;;;;;;7.50;2.70;;;4.20;99.90;;;;;;5022440;28;20107;-77
2021/12/12 05:34:18;;;;;;;6.32;2.22;;;4.20;99.90;;;;;;5028660;28;20033;-80
2021/12/12 05:36:45;;;;;;;7.85;2.65;;;4.20;99.90;;;;;;5025901;28;20076;-79
2021/12/12 05:39:12;;;;;;;11.10;2.38;;;4.40;99.90;;;;;;5021698;28;20495;-80
2021/12/12 05:41:37;;;;;;;11.80;2.78;;;4.30;99.90;;;;;;5025738;28;20026;-78
2021/12/12 05:44:05;;;;;;;7.93;2.33;;;4.30;99.90;;;;;;5026683;28;20047;-79
2021/12/12 05:46:30;;;;;;;7.75;2.30;;;4.40;99.90;;;;;;5024455;28;20117;-80
2021/12/12 05:48:59;;;;;;;6.75;2.45;;;4.40;99.90;;;;;;5026463;28;20060;-78
2021/12/12 05:51:27;;;;;;;7.93;2.10;;;4.30;99.90;;;;;;5024311;28;20029;-78
2021/12/12 05:53:54;;;;;;;7.15;2.60;;;4.30;99.90;;;;;;5043874;28;20491;-79
2021/12/12 05:56:25;;;;;;;10.30;2.58;;;4.30;99.90;;;;;;5024198;28;20021;-80
2021/12/12 05:58:52;;;;;;;7.47;2.00;;;4.30;99.90;;;;;;5024397;28;20687;-78
2021/12/12 06:01:19;;;;;;;8.05;2.20;;;4.40;99.90;;;;;;5027869;28;20040;-80
2021/12/12 06:03:49;;;;;;;6.10;2.28;;;4.30;99.90;;;;;;5022664;28;20100;-83
2021/12/12 06:06:20;;;;;;;6.43;2.20;;;4.30;99.90;;;;;;5028765;28;20030;-80
2021/12/12 06:08:47;;;;;;;;;;;4.40;99.90;;;;;;5030003;28;20277;-82
2021/12/12 06:11:15;;;;;;;12.07;3.53;;;4.30;99.90;;;;;;5027837;28;19913;-84
2021/12/12 06:13:42;;;;;;;7.30;2.55;;;4.40;99.90;;;;;;5029243;28;20461;-83
2021/12/12 06:16:08;;;;;;;10.90;2.20;;;4.40;99.90;;;;;;5024880;28;20428;-78
2021/12/12 06:18:36;;;;;;;7.40;2.67;;;4.40;99.90;;;;;;5042523;28;20116;-81
2021/12/12 06:21:03;;;;;;;6.53;2.22;;;4.40;99.90;;;;;;5024632;28;20060;-82
2021/12/12 06:23:29;;;;;;;8.68;2.55;;;4.40;99.90;;;;;;5023244;28;20026;-76
2021/12/12 06:25:55;;;;;;;11.00;2.55;;;4.40;99.90;;;;;;5027908;28;20420;-82
2021/12/12 06:28:25;;;;;;;11.20;2.22;;;4.40;99.90;;;;;;5030660;28;20029;-81
2021/12/12 06:30:50;;;;;;;8.52;2.58;;;4.40;99.90;;;;;;5028257;28;20025;-80
2021/12/12 06:33:16;;;;;;;8.70;3.58;;;4.50;99.90;;;;;;5031240;28;20468;-82
2021/12/12 06:35:42;;;;;;;13.32;2.70;;;4.50;99.90;;;;;;5033062;28;20499;-84
2021/12/12 06:38:10;;;;;;;9.60;2.70;;;4.50;99.90;;;;;;5029510;28;20038;-81
2021/12/12 06:40:37;;;;;;;8.68;2.95;;;4.50;99.90;;;;;;5030174;28;20034;-85
2021/12/12 06:43:05;;;;;;;10.40;3.35;;;4.50;99.90;;;;;;5032754;28;20098;-80
2021/12/12 06:45:32;;;;;;;9.55;2.20;;;4.50;99.90;;;;;;5029677;28;20029;-80
2021/12/12 06:47:58;;;;;;;9.10;2.50;;;4.50;99.90;;;;;;5034147;28;20022;-82
2021/12/12 06:50:27;;;;;;;5.22;2.25;;;4.50;99.90;;;;;;5032088;28;20052;-80
2021/12/12 06:52:54;;;;;;;5.78;2.17;;;4.50;99.90;;;;;;5028379;28;20143;-80
2021/12/12 06:55:21;;;;;;;11.45;2.47;;;4.50;99.90;;;;;;5031306;28;20135;-78
2021/12/12 06:57:48;;;;;;;4.90;2.58;;;4.50;99.90;;;;;;5029267;28;20039;-83
2021/12/12 07:00:18;;;;;;;8.15;2.60;;;4.50;99.90;;;;;;5030983;28;20044;-79
2021/12/12 07:02:44;;;;;;;10.30;2.77;;;4.40;99.90;;;;;;5025368;28;20079;-85
2021/12/12 07:05:18;;;;;;;8.38;2.10;;;4.50;99.90;;;;;;5036490;28;20032;-81
2021/12/12 07:07:45;;;;;;;7.13;2.50;;;4.50;99.90;;;;;;5031067;28;20037;-80
2021/12/12 07:10:13;;;;;;;6.50;2.38;;;4.50;99.90;;;;;;5029656;28;20434;-82
2021/12/12 07:12:40;;;;;;;8.25;2.60;;;4.60;99.90;;;;;;5033182;28;20033;-78
2021/12/12 07:15:13;;;;;;;5.85;2.30;;;4.60;99.90;;;;;;5028496;28;20025;-81
2021/12/12 07:17:40;;;;;;;7.75;2.15;;;4.50;99.90;;;;;;5027020;28;20495;-79
2021/12/12 07:20:08;;;;;;;4.95;1.92;;;4.50;99.90;;;;;;5032558;28;20026;-83
2021/12/12 07:22:34;;;;;;;8.98;2.25;;;4.40;99.90;;;;;;5034052;28;20025;-86
2021/12/12 07:25:04;;;;;;;7.30;2.22;;;4.40;99.90;;;;;;5036119;28;20037;-80
2021/12/12 07:27:29;;;;;;;9.75;2.28;;;4.40;99.90;;;;;;5030259;28;20490;-82
2021/12/12 07:29:56;;;;;;;8.73;2.40;;;4.40;99.90;;;;;;5029455;28;20152;-84
2021/12/12 07:32:22;;;;;;;8.55;3.30;;;4.40;99.90;;;;;;5031905;28;20083;-81
2021/12/12 07:34:48;;;;;;;5.43;2.35;;;4.40;99.90;;;;;;5030249;28;20029;-80
2021/12/12 07:37:15;;;;;;;9.48;2.65;;;4.40;99.90;;;;;;5028819;28;20032;-81
2021/12/12 07:39:43;;;;;;;9.88;3.42;;;4.40;99.90;;;;;;5025815;28;20018;-81
2021/12/12 07:42:10;;;;;;;8.05;3.33;;;4.40;99.90;;;;;;5032190;28;20036;-81
2021/12/12 07:44:40;;;;;;;9.50;2.75;;;4.40;99.90;;;;;;5028171;28;20029;-82
2021/12/12 07:47:07;;;;;;;11.48;3.53;;;4.40;99.90;;;;;;5023392;28;20029;-80
2021/12/12 07:49:38;;;;;;;7.13;2.53;;;4.30;99.90;;;;;;5028097;28;20049;-82
2021/12/12 07:52:10;;;;;;;8.15;2.25;;;4.40;99.90;;;;;;5031140;28;20033;-81
2021/12/12 07:54:36;;;;;;;6.03;2.30;;;4.40;99.90;;;;;;5040506;28;20020;-81
2021/12/12 07:57:04;;;;;;;8.68;2.72;;;4.30;99.90;;;;;;5037012;28;20080;-80
2021/12/12 07:59:31;;;;;;;9.00;2.90;;;4.30;99.90;;;;;;5024816;28;20032;-81
2021/12/12 08:01:57;;;;;;;9.98;2.72;;;4.30;99.90;;;;;;5026097;28;20132;-79
2021/12/12 08:04:30;;;;;;;7.78;2.97;;;4.30;99.90;;;;;;5024340;28;20037;-84
2021/12/12 08:06:56;;;;;;;8.80;2.50;;;4.30;99.90;;;;;;5041661;28;20113;-80
2021/12/12 08:09:22;;;;;;;11.18;2.78;;;4.30;99.90;;;;;;5025983;28;20052;-82
2021/12/12 08:11:49;;;;;;;7.78;2.55;;;4.30;99.90;;;;;;5023929;28;20068;-80
2021/12/12 08:14:24;;;;;;;16.00;2.90;;;4.40;99.90;;;;;;5024570;28;20686;-79
2021/12/12 08:16:51;;;;;;;9.13;2.75;;;4.40;99.90;;;;;;5026223;28;20487;-80
2021/12/12 08:19:18;;;;;;;10.30;3.20;;;4.40;99.90;;;;;;5043347;28;20026;-80
2021/12/12 08:21:45;;;;;;;13.10;3.30;;;4.40;99.90;;;;;;5025910;28;20029;-84
2021/12/12 08:24:12;;;;;;;7.43;3.00;;;4.30;99.90;;;;;;5025089;28;20113;-85
2021/12/12 08:26:40;;;;;;;10.52;3.17;;;4.40;99.90;;;;;;5028571;28;20084;-79
2021/12/12 08:29:07;;;;;;;8.18;2.42;;;4.30;99.90;;;;;;5023243;28;20040;-81
2021/12/12 08:31:33;;;;;;;9.07;3.00;;;4.40;99.90;;;;;;5020754;28;20510;-80
2021/12/12 08:33:59;;;;;;;7.78;2.35;;;4.30;99.90;;;;;;5024117;28;20064;-81
2021/12/12 08:36:25;;;;;;;11.15;3.40;;;4.40;99.90;;;;;;5024761;28;20441;-84
2021/12/12 08:38:52;;;;;;;7.65;2.20;;;4.50;99.90;;;;;;5027739;28;20109;-81
2021/12/12 08:41:19;;;;;;;5.68;2.90;;;4.50;99.90;;;;;;5024659;28;20036;-80
2021/12/12 08:43:45;;;;;;;7.43;2.53;;;4.40;99.90;;;;;;5027836;28;20029;-79
2021/12/12 08:46:14;;;;;;;10.02;2.95;;;4.40;99.90;;;;;;5026353;28;20021;-79
2021/12/12 08:48:51;;;;;;;13.55;4.43;;;4.50;99.90;;;;;;5024646;28;20097;-80
2021/12/12 08:51:29;;;;;;;10.95;3.10;;;4.40;99.90;;;;;;5027090;28;20056;-79
2021/12/12 08:53:56;;;;;;;7.90;2.92;;;4.50;99.90;;;;;;5028028;28;20426;-78
2021/12/12 08:56:41;;;;;;;10.15;2.97;;;4.60;99.90;;;;;;5022785;28;20140;-78
2021/12/12 08:59:08;;;;;;;7.45;2.78;;;4.60;99.90;;;;;;5028577;28;20040;-79
2021/12/12 09:01:38;;;;;;;8.40;3.05;;;4.60;99.90;;;;;;5027800;28;20398;-79
2021/12/12 09:04:07;;;;;;;11.65;3.70;;;4.60;99.90;;;;;;5024289;28;20737;-78
2021/12/12 09:06:38;;;;;;;14.55;3.80;;;4.60;99.90;;;;;;5027334;28;20047;-78
2021/12/12 09:09:15;;;;;;;8.15;3.15;;;4.50;99.90;;;;;;5025577;28;20553;-81
2021/12/12 09:11:47;;;;;;;8.18;3.60;;;4.50;99.90;;;;;;5028023;28;20103;-80
2021/12/12 09:15:02;;;;;;;7.65;3.03;;;4.50;99.90;;;;;;5023554;28;20038;-79
2021/12/12 09:17:29;;;;;;;10.48;3.30;;;4.60;99.90;;;;;;5002711;28;20640;-77
2021/12/12 09:20:15;;;;;;;13.98;3.53;;;4.60;99.90;;;;;;5030541;28;20033;-79
2021/12/12 09:22:56;;;;;;;10.55;2.70;;;4.70;99.90;;;;;;5027880;28;20037;-81
2021/12/12 09:25:50;;;;;;;9.38;3.15;;;4.80;99.90;;;;;;5023896;28;20063;-79
2021/12/12 09:28:46;;;;;;;9.98;3.33;;;4.70;99.90;;;;;;5027251;28;20048;-78
2021/12/12 09:31:29;;;;;;;13.23;4.50;;;4.70;99.90;;;;;;5029168;28;20033;-80
2021/12/12 09:34:16;;;;;;;11.13;3.60;;;4.70;99.90;;;;;;5014785;28;20017;-82
2021/12/12 09:36:53;;;;;;;12.48;3.28;;;4.80;99.90;;;;;;5025422;28;20033;-84
2021/12/12 09:39:25;;;;;;;10.60;3.60;;;4.70;99.90;;;;;;5023509;28;20784;-82
2021/12/12 09:42:14;;;;;;;13.23;3.40;;;4.80;99.90;;;;;;5024298;28;20544;-83
2021/12/12 09:44:51;;;;;;;10.00;3.30;;;4.70;99.90;;;;;;5037978;28;20032;-81
2021/12/12 09:48:04;;;;;;;11.00;3.58;;;4.80;99.90;;;;;;5023877;28;20033;-81
2021/12/12 09:51:16;;;;;;;9.55;4.55;;;4.80;99.90;;;;;;5031263;28;20049;-82
2021/12/12 09:54:20;;;;;;;8.68;3.25;;;4.70;99.90;;;;;;5036028;28;20029;-81
2021/12/12 09:57:02;;;;;;;10.05;3.75;;;4.50;99.90;;;;;;5031457;28;20446;-82
2021/12/12 10:00:05;;;;;;;10.82;3.67;;;4.50;99.90;;;;;;5033794;28;20057;-82
2021/12/12 10:02:58;;;;;;;9.05;3.50;;;4.60;99.90;;;;;;5046704;28;20063;-83
2021/12/12 10:05:30;;;;;;;13.13;3.83;;;4.60;99.90;;;;;;5031394;28;20037;-83
2021/12/12 10:08:32;;;;;;;10.43;3.83;;;4.70;99.90;;;;;;5024517;28;20033;-85
2021/12/12 10:11:17;;;;;;;11.85;3.35;;;4.80;99.90;;;;;;5027219;28;20048;-83
2021/12/12 10:13:53;;;;;;;13.70;3.70;;;4.90;99.90;;;;;;5046949;28;20022;-83
2021/12/12 10:16:26;;;;;;;9.02;3.33;;;4.90;99.90;;;;;;5027073;28;20030;-86
2021/12/12 10:18:56;;;;;;;9.07;3.85;;;5.00;99.90;;;;;;5026421;28;20033;-84
2021/12/12 10:21:37;;;;;;;11.07;3.47;;;5.00;99.90;;;;;;5027260;28;20045;-81
2021/12/12 10:24:27;;;;;;;10.35;3.45;;;4.90;99.90;;;;;;5028278;28;20109;-81
2021/12/12 10:27:14;;;;;;;11.68;4.15;;;5.00;99.90;;;;;;5025095;28;20057;-83
2021/12/12 10:30:07;;;;;;;7.78;3.50;;;5.00;99.90;;;;;;5026808;28;20022;-85
2021/12/12 10:32:40;;;;;;;9.77;3.40;;;5.00;99.90;;;;;;5030835;28;20030;-87
2021/12/12 10:35:20;;;;;;;11.73;3.58;;;4.90;99.90;;;;;;5028877;28;20057;-80
2021/12/12 10:37:45;;;;;;;12.82;3.60;;;4.90;99.90;;;;;;5028382;28;20033;-86
2021/12/12 10:40:20;;;;;;;8.75;3.65;;;5.00;99.90;;;;;;5025325;28;20033;-84
2021/12/12 10:42:53;;;;;;;9.98;3.35;;;5.00;99.90;;;;;;5026691;28;20387;-83
2021/12/12 10:45:29;;;;;;;10.68;3.58;;;5.00;99.90;;;;;;5028835;28;20531;-81
2021/12/12 10:48:07;;;;;;;8.20;2.90;;;5.00;99.90;;;;;;5026076;28;20236;-84
2021/12/12 10:50:43;;;;;;;8.43;3.55;;;5.00;99.90;;;;;;5025510;28;20083;-87
2021/12/12 10:53:27;;;;;;;10.13;3.65;;;4.90;99.90;;;;;;5028213;28;20041;-84
2021/12/12 10:56:13;;;;;;;10.00;3.45;;;4.90;99.90;;;;;;5025942;28;20037;-85
2021/12/12 10:58:47;;;;;;;9.23;3.05;;;5.70;99.90;;;;;;5023367;28;20044;-84
2021/12/12 11:01:42;;;;;;;8.80;3.35;;;5.00;99.90;;;;;;5017312;28;20034;-83
2021/12/12 11:04:24;;;;;;;8.43;2.70;;;5.10;99.90;;;;;;5016975;28;20112;-82
2021/12/12 11:06:55;;;;;;;11.35;3.38;;;5.00;99.90;;;;;;5029130;28;20029;-83
2021/12/12 11:09:36;;;;;;;12.02;3.35;;;5.00;99.90;;;;;;5030215;28;20093;-85
2021/12/12 11:12:13;;;;;;;10.93;3.60;;;6.00;99.90;;;;;;5031396;28;20044;-82
2021/12/12 11:15:08;;;;;;;11.02;3.58;;;5.20;99.90;;;;;;5029420;28;20127;-80
2021/12/12 11:17:41;;;;;;;13.05;3.25;;;5.30;99.90;;;;;;4998025;28;20053;-82
2021/12/12 11:20:21;;;;;;;11.30;3.42;;;5.40;99.90;;;;;;5030617;28;20100;-79
2021/12/12 11:22:52;;;;;;;10.43;3.60;;;5.20;99.90;;;;;;5021816;28;20561;-83
2021/12/12 11:25:23;;;;;;;11.55;3.30;;;5.20;99.90;;;;;;5025835;28;20064;-83
2021/12/12 11:28:05;;;;;;;8.35;3.63;;;5.10;99.90;;;;;;5031554;28;20033;-81
2021/12/12 11:30:39;;;;;;;11.48;4.10;;;5.10;99.90;;;;;;5028274;28;20031;-82
2021/12/12 11:33:09;;;;;;;10.95;3.67;;;5.20;99.90;;;;;;5022220;28;20033;-83
2021/12/12 11:35:36;;;;;;;7.72;3.35;;;5.20;99.90;;;;;;5020055;28;20044;-82
2021/12/12 11:38:29;;;;;;;13.38;4.70;;;5.20;99.90;;;;;;5022778;28;20037;-83
2021/12/12 11:41:25;;;;;;;10.07;3.92;;;5.20;99.90;;;;;;5048108;28;20040;-83
2021/12/12 11:44:13;;;;;;;10.13;3.90;;;5.20;99.90;;;;;;5000098;28;20071;-79
2021/12/12 11:47:08;;;;;;;11.35;3.78;;;5.30;99.90;;;;;;5041532;28;20022;-81
2021/12/12 11:50:02;;;;;;;14.07;4.25;;;5.30;99.90;;;;;;5026548;28;20026;-85
2021/12/12 11:52:51;;;;;;;15.80;6.18;;;5.30;99.90;;;;;;5030848;28;20025;-81
2021/12/12 11:55:27;;;;;;;13.02;4.28;;;5.40;99.90;;;;;;5030192;28;20136;-82
2021/12/12 11:58:14;;;;;;;14.88;6.07;;;5.40;99.90;;;;;;5027834;28;20034;-84
2021/12/12 12:00:47;;;;;;;13.05;5.60;;;5.30;99.90;;;;;;5022897;28;20026;-82
2021/12/12 12:03:24;;;;;;;7.05;3.85;;;5.40;99.90;;;;;;5027512;28;20032;-86
2021/12/12 12:06:09;;;;;;;9.88;3.40;;;5.40;99.90;;;;;;5022731;28;20018;-81
2021/12/12 12:08:51;;;;;;;9.70;3.05;;;5.50;99.90;;;;;;5024174;28;21709;-83
2021/12/12 12:11:49;;;;;;;8.90;3.58;;;5.50;99.90;;;;;;5024398;28;20026;-82
2021/12/12 12:14:53;;;;;;;9.52;4.03;;;5.40;99.90;;;;;;5011745;28;20033;-82
2021/12/12 12:17:37;;;;;;;8.25;3.63;;;5.30;99.90;;;;;;5026968;28;20053;-79
2021/12/12 12:20:35;;;;;;;10.77;3.92;;;5.40;99.90;;;;;;5025103;28;20030;-81
2021/12/12 12:23:20;;;;;;;14.50;4.20;;;5.40;99.90;;;;;;5030993;28;20040;-83
2021/12/12 12:28:49;;;;;;;11.18;4.43;;;5.50;99.90;;;;;;5029037;28;20048;-85
2021/12/12 12:31:33;;;;;;;10.70;4.38;;;5.50;99.90;;;;;;5026426;28;20108;-79
2021/12/12 12:34:43;;;;;;;9.75;4.45;;;5.50;99.90;;;;;;5030839;28;20029;-80
2021/12/12 12:37:40;;;;;;;12.50;4.17;;;5.50;99.90;;;;;;5029552;28;20467;-83
2021/12/12 12:41:00;;;;;;;9.15;4.32;;;5.50;99.90;;;;;;5030000;28;20291;-83
2021/12/12 12:44:03;;;;;;;10.10;3.95;;;5.50;99.90;;;;;;5024538;28;20129;-84
2021/12/12 12:47:11;;;;;;;14.82;4.57;;;5.50;99.90;;;;;;5027669;28;20037;-87
2021/12/12 12:50:14;;;;;;;10.20;4.28;;;5.50;99.90;;;;;;5016594;28;20033;-82
2021/12/12 12:53:08;;;;;;;12.00;4.38;;;5.60;99.90;;;;;;5029569;28;20033;-84
2021/12/12 12:56:01;;;;;;;12.35;4.32;;;5.60;99.90;;;;;;5017446;28;21105;-80
2021/12/12 12:58:34;;;;;;;12.57;4.55;;;5.60;99.90;;;;;;5042769;28;20053;-80
2021/12/12 13:01:16;;;;;;;15.20;4.32;;;5.60;99.90;;;;;;5038465;28;20037;-83
2021/12/12 13:04:09;;;;;;;12.02;4.05;;;5.60;99.90;;;;;;5025906;28;20051;-79
2021/12/12 13:06:57;;;;;;;10.52;4.85;;;5.60;99.90;;;;;;5027580;28;20084;-81
2021/12/12 13:09:35;;;;;;;12.50;4.63;;;5.60;99.90;;;;;;5016948;28;20029;-84
2021/12/12 13:12:09;;;;;;;11.10;4.50;;;5.60;99.90;;;;;;5021510;28;20097;-80
2021/12/12 13:15:02;;;;;;;15.63;5.35;;;5.50;99.90;;;;;;5023225;28;20025;-82
2021/12/12 13:17:59;;;;;;;12.80;4.97;;;5.60;99.90;;;;;;5023457;28;20036;-79
2021/12/12 13:20:42;;;;;;;10.90;4.85;;;5.60;99.90;;;;;;5027366;28;20033;-81
2021/12/12 13:23:42;;;;;;;16.08;7.13;;;5.60;99.90;;;;;;5025153;28;20110;-80
2021/12/12 13:26:47;;;;;;;14.00;6.22;;;5.60;99.90;;;;;;5022735;28;20044;-81
2021/12/12 13:29:39;;;;;;;11.65;4.88;;;5.70;99.90;;;;;;5029584;28;20051;-85
2021/12/12 13:32:19;;;;;;;10.40;5.13;;;5.70;99.90;;;;;;5025607;28;20034;-83
2021/12/12 13:34:56;;;;;;;14.15;6.00;;;5.70;99.90;;;;;;5026213;28;20513;-80
2021/12/12 13:37:59;;;;;;;12.45;5.32;;;5.70;99.90;;;;;;5043615;28;20125;-82
2021/12/12 13:40:33;;;;;;;16.77;5.28;;;5.80;99.90;;;;;;4948388;28;20065;-79
2021/12/12 13:43:14;;;;;;;12.50;5.00;;;5.80;99.90;;;;;;5021437;28;20024;-84
2021/12/12 13:46:01;;;;;;;9.05;4.57;;;5.80;99.90;;;;;;5039115;28;20079;-81
2021/12/12 13:48:35;;;;;;;14.88;5.25;;;5.80;99.90;;;;;;5025324;28;20037;-80
2021/12/12 13:51:22;;;;;;;14.05;5.90;;;5.90;99.90;;;;;;5029846;28;20072;-82
2021/12/12 13:53:56;;;;;;;11.10;4.72;;;5.90;99.90;;;;;;5029100;28;20466;-82